sensor_id;sensor_type;location;lat;lon;timestamp;P1;durP1;ratioP1;P2;durP2;ratioP2
23737;SDS011;12049;51.068;3.688;2022-08-06T00:02:24;5.80;;;2.50;;
23737;SDS011;12049;51.068;3.688;2022-08-06T00:04:52;7.80;;;2.70;;
23737;SDS011;12049;51.068;3.688;2022-08-06T00:07:20;4.13;;;2.10;;
23737;SDS011;12049;51.068;3.688;2022-08-06T00:09:45;3.42;;;2.13;;
23737;SDS011;12049;51.068;3.688;2022-08-06T00:12:11;5.47;;;2.45;;
23737;SDS011;12049;51.068;3.688;2022-08-06T00:14:37;5.05;;;2.40;;
23737;SDS011;12049;51.068;3.688;2022-08-06T00:17:03;4.40;;;2.20;;
23737;SDS011;12049;51.068;3.688;2022-08-06T00:19:30;7.85;;;2.38;;
23737;SDS011;12049;51.068;3.688;2022-08-06T00:21:56;7.18;;;2.50;;
23737;SDS011;12049;51.068;3.688;2022-08-06T00:24:22;6.18;;;2.45;;
23737;SDS011;12049;51.068;3.688;2022-08-06T00:26:47;5.03;;;2.20;;
23737;SDS011;12049;51.068;3.688;2022-08-06T00:29:13;6.95;;;2.45;;
23737;SDS011;12049;51.068;3.688;2022-08-06T00:31:39;5.43;;;2.45;;
23737;SDS011;12049;51.068;3.688;2022-08-06T00:34:05;8.45;;;2.30;;
23737;SDS011;12049;51.068;3.688;2022-08-06T00:36:31;5.15;;;2.50;;
23737;SDS011;12049;51.068;3.688;2022-08-06T00:38:58;5.13;;;2.47;;
23737;SDS011;12049;51.068;3.688;2022-08-06T00:41:26;5.15;;;2.75;;
23737;SDS011;12049;51.068;3.688;2022-08-06T00:43:52;7.50;;;2.50;;
23737;SDS011;12049;51.068;3.688;2022-08-06T00:46:18;7.00;;;2.67;;
23737;SDS011;12049;51.068;3.688;2022-08-06T00:48:44;6.18;;;2.70;;
23737;SDS011;12049;51.068;3.688;2022-08-06T00:51:09;7.15;;;2.53;;
23737;SDS011;12049;51.068;3.688;2022-08-06T00:53:35;10.25;;;3.05;;
23737;SDS011;12049;51.068;3.688;2022-08-06T00:56:02;6.25;;;2.30;;
23737;SDS011;12049;51.068;3.688;2022-08-06T00:58:29;6.68;;;2.60;;
23737;SDS011;12049;51.068;3.688;2022-08-06T01:00:55;6.13;;;2.63;;
23737;SDS011;12049;51.068;3.688;2022-08-06T01:03:20;9.85;;;2.90;;
23737;SDS011;12049;51.068;3.688;2022-08-06T01:05:46;8.50;;;2.60;;
23737;SDS011;12049;51.068;3.688;2022-08-06T01:08:12;9.32;;;2.67;;
23737;SDS011;12049;51.068;3.688;2022-08-06T01:10:38;7.10;;;2.60;;
23737;SDS011;12049;51.068;3.688;2022-08-06T01:13:04;7.70;;;2.78;;
23737;SDS011;12049;51.068;3.688;2022-08-06T01:15:31;8.35;;;2.60;;
23737;SDS011;12049;51.068;3.688;2022-08-06T01:18:05;7.30;;;2.58;;
23737;SDS011;12049;51.068;3.688;2022-08-06T01:26:06;6.90;;;2.47;;
23737;SDS011;12049;51.068;3.688;2022-08-06T01:31:13;5.85;;;2.50;;
23737;SDS011;12049;51.068;3.688;2022-08-06T01:33:52;6.03;;;2.42;;
23737;SDS011;12049;51.068;3.688;2022-08-06T01:36:27;6.82;;;2.88;;
23737;SDS011;12049;51.068;3.688;2022-08-06T01:38:58;6.28;;;2.58;;
23737;SDS011;12049;51.068;3.688;2022-08-06T01:41:27;9.80;;;2.40;;
23737;SDS011;12049;51.068;3.688;2022-08-06T01:44:07;4.03;;;2.53;;
23737;SDS011;12049;51.068;3.688;2022-08-06T01:46:35;5.97;;;2.30;;
23737;SDS011;12049;51.068;3.688;2022-08-06T01:49:04;7.38;;;2.42;;
23737;SDS011;12049;51.068;3.688;2022-08-06T01:51:32;4.80;;;2.50;;
23737;SDS011;12049;51.068;3.688;2022-08-06T01:54:00;4.55;;;2.30;;
23737;SDS011;12049;51.068;3.688;2022-08-06T01:56:27;5.65;;;2.53;;
23737;SDS011;12049;51.068;3.688;2022-08-06T01:58:57;6.55;;;2.50;;
23737;SDS011;12049;51.068;3.688;2022-08-06T02:01:25;4.57;;;2.28;;
23737;SDS011;12049;51.068;3.688;2022-08-06T02:03:54;6.20;;;2.53;;
23737;SDS011;12049;51.068;3.688;2022-08-06T02:06:21;4.78;;;2.30;;
23737;SDS011;12049;51.068;3.688;2022-08-06T02:08:51;6.72;;;2.53;;
23737;SDS011;12049;51.068;3.688;2022-08-06T02:11:18;4.60;;;2.42;;
23737;SDS011;12049;51.068;3.688;2022-08-06T02:13:44;4.47;;;2.10;;
23737;SDS011;12049;51.068;3.688;2022-08-06T02:16:11;6.22;;;2.15;;
23737;SDS011;12049;51.068;3.688;2022-08-06T02:18:39;8.05;;;2.30;;
23737;SDS011;12049;51.068;3.688;2022-08-06T02:21:08;7.70;;;2.50;;
23737;SDS011;12049;51.068;3.688;2022-08-06T02:23:37;7.00;;;2.40;;
23737;SDS011;12049;51.068;3.688;2022-08-06T02:26:04;7.05;;;2.50;;
23737;SDS011;12049;51.068;3.688;2022-08-06T02:28:31;4.78;;;2.42;;
23737;SDS011;12049;51.068;3.688;2022-08-06T02:30:58;5.85;;;2.22;;
23737;SDS011;12049;51.068;3.688;2022-08-06T02:33:24;6.32;;;2.45;;
23737;SDS011;12049;51.068;3.688;2022-08-06T02:38:23;5.95;;;2.67;;
23737;SDS011;12049;51.068;3.688;2022-08-06T02:41:11;5.75;;;2.35;;
23737;SDS011;12049;51.068;3.688;2022-08-06T02:43:56;4.85;;;2.30;;
23737;SDS011;12049;51.068;3.688;2022-08-06T02:46:34;4.38;;;2.20;;
23737;SDS011;12049;51.068;3.688;2022-08-06T02:49:08;7.28;;;2.10;;
23737;SDS011;12049;51.068;3.688;2022-08-06T02:51:38;5.57;;;2.10;;
23737;SDS011;12049;51.068;3.688;2022-08-06T02:54:14;5.93;;;2.15;;
23737;SDS011;12049;51.068;3.688;2022-08-06T02:56:45;8.02;;;2.70;;
23737;SDS011;12049;51.068;3.688;2022-08-06T02:59:15;6.95;;;2.80;;
23737;SDS011;12049;51.068;3.688;2022-08-06T03:01:50;7.97;;;2.17;;
23737;SDS011;12049;51.068;3.688;2022-08-06T03:04:20;4.68;;;2.53;;
23737;SDS011;12049;51.068;3.688;2022-08-06T03:06:48;4.70;;;2.30;;
23737;SDS011;12049;51.068;3.688;2022-08-06T03:09:14;5.70;;;2.20;;
23737;SDS011;12049;51.068;3.688;2022-08-06T03:11:42;7.30;;;2.30;;
23737;SDS011;12049;51.068;3.688;2022-08-06T03:14:09;4.50;;;2.45;;
23737;SDS011;12049;51.068;3.688;2022-08-06T03:16:37;5.45;;;2.30;;
23737;SDS011;12049;51.068;3.688;2022-08-06T03:19:03;9.80;;;2.67;;
23737;SDS011;12049;51.068;3.688;2022-08-06T03:21:31;8.77;;;2.55;;
23737;SDS011;12049;51.068;3.688;2022-08-06T03:23:58;4.95;;;2.60;;
23737;SDS011;12049;51.068;3.688;2022-08-06T03:26:26;3.95;;;2.33;;
23737;SDS011;12049;51.068;3.688;2022-08-06T03:28:54;4.30;;;2.03;;
23737;SDS011;12049;51.068;3.688;2022-08-06T03:31:22;3.53;;;2.33;;
23737;SDS011;12049;51.068;3.688;2022-08-06T03:33:49;6.05;;;2.60;;
23737;SDS011;12049;51.068;3.688;2022-08-06T03:36:17;5.80;;;2.40;;
23737;SDS011;12049;51.068;3.688;2022-08-06T03:38:58;6.90;;;2.70;;
23737;SDS011;12049;51.068;3.688;2022-08-06T03:41:28;5.43;;;2.40;;
23737;SDS011;12049;51.068;3.688;2022-08-06T03:43:55;4.15;;;2.25;;
23737;SDS011;12049;51.068;3.688;2022-08-06T03:46:23;5.05;;;2.45;;
23737;SDS011;12049;51.068;3.688;2022-08-06T03:48:52;3.92;;;2.35;;
23737;SDS011;12049;51.068;3.688;2022-08-06T03:51:23;5.43;;;2.83;;
23737;SDS011;12049;51.068;3.688;2022-08-06T03:53:51;6.25;;;2.63;;
23737;SDS011;12049;51.068;3.688;2022-08-06T03:56:19;8.43;;;2.63;;
23737;SDS011;12049;51.068;3.688;2022-08-06T03:58:47;7.65;;;2.40;;
23737;SDS011;12049;51.068;3.688;2022-08-06T04:01:18;5.80;;;2.70;;
23737;SDS011;12049;51.068;3.688;2022-08-06T04:03:47;6.07;;;2.70;;
23737;SDS011;12049;51.068;3.688;2022-08-06T04:06:13;8.32;;;2.85;;
23737;SDS011;12049;51.068;3.688;2022-08-06T04:08:42;5.95;;;2.50;;
23737;SDS011;12049;51.068;3.688;2022-08-06T04:11:10;5.43;;;2.67;;
23737;SDS011;12049;51.068;3.688;2022-08-06T04:13:37;3.40;;;2.85;;
23737;SDS011;12049;51.068;3.688;2022-08-06T04:16:03;5.78;;;2.60;;
23737;SDS011;12049;51.068;3.688;2022-08-06T04:18:32;7.88;;;3.20;;
23737;SDS011;12049;51.068;3.688;2022-08-06T04:21:00;6.65;;;2.65;;
23737;SDS011;12049;51.068;3.688;2022-08-06T04:23:27;7.80;;;2.90;;
23737;SDS011;12049;51.068;3.688;2022-08-06T04:25:55;5.60;;;2.72;;
23737;SDS011;12049;51.068;3.688;2022-08-06T04:28:24;8.82;;;2.72;;
23737;SDS011;12049;51.068;3.688;2022-08-06T04:30:51;6.07;;;2.83;;
23737;SDS011;12049;51.068;3.688;2022-08-06T04:33:19;5.50;;;2.67;;
23737;SDS011;12049;51.068;3.688;2022-08-06T04:35:48;5.93;;;2.65;;
23737;SDS011;12049;51.068;3.688;2022-08-06T04:38:14;7.38;;;3.03;;
23737;SDS011;12049;51.068;3.688;2022-08-06T04:40:42;6.13;;;2.58;;
23737;SDS011;12049;51.068;3.688;2022-08-06T04:43:08;7.22;;;2.63;;
23737;SDS011;12049;51.068;3.688;2022-08-06T04:45:41;6.50;;;2.60;;
23737;SDS011;12049;51.068;3.688;2022-08-06T04:48:09;4.63;;;2.53;;
23737;SDS011;12049;51.068;3.688;2022-08-06T04:50:36;7.00;;;3.05;;
23737;SDS011;12049;51.068;3.688;2022-08-06T04:53:09;5.13;;;2.75;;
23737;SDS011;12049;51.068;3.688;2022-08-06T04:55:37;6.95;;;3.05;;
23737;SDS011;12049;51.068;3.688;2022-08-06T04:58:04;4.53;;;2.67;;
23737;SDS011;12049;51.068;3.688;2022-08-06T05:00:33;5.10;;;2.60;;
23737;SDS011;12049;51.068;3.688;2022-08-06T05:03:00;7.15;;;2.60;;
23737;SDS011;12049;51.068;3.688;2022-08-06T05:05:27;5.88;;;2.35;;
23737;SDS011;12049;51.068;3.688;2022-08-06T05:07:56;5.47;;;2.85;;
23737;SDS011;12049;51.068;3.688;2022-08-06T05:10:25;5.35;;;2.72;;
23737;SDS011;12049;51.068;3.688;2022-08-06T05:13:13;6.20;;;2.83;;
23737;SDS011;12049;51.068;3.688;2022-08-06T05:15:42;8.05;;;3.17;;
23737;SDS011;12049;51.068;3.688;2022-08-06T05:18:15;5.38;;;2.65;;
23737;SDS011;12049;51.068;3.688;2022-08-06T05:20:54;6.82;;;2.78;;
23737;SDS011;12049;51.068;3.688;2022-08-06T05:23:24;4.15;;;2.30;;
23737;SDS011;12049;51.068;3.688;2022-08-06T05:26:00;3.33;;;2.38;;
23737;SDS011;12049;51.068;3.688;2022-08-06T05:28:25;5.40;;;2.40;;
23737;SDS011;12049;51.068;3.688;2022-08-06T05:30:51;4.82;;;2.47;;
23737;SDS011;12049;51.068;3.688;2022-08-06T05:35:54;5.85;;;2.97;;
23737;SDS011;12049;51.068;3.688;2022-08-06T05:38:20;7.15;;;2.70;;
23737;SDS011;12049;51.068;3.688;2022-08-06T05:40:46;4.68;;;2.60;;
23737;SDS011;12049;51.068;3.688;2022-08-06T05:43:13;4.43;;;2.50;;
23737;SDS011;12049;51.068;3.688;2022-08-06T05:45:39;7.93;;;2.80;;
23737;SDS011;12049;51.068;3.688;2022-08-06T05:48:06;6.93;;;2.85;;
23737;SDS011;12049;51.068;3.688;2022-08-06T05:50:34;5.45;;;2.70;;
23737;SDS011;12049;51.068;3.688;2022-08-06T05:53:23;5.53;;;3.00;;
23737;SDS011;12049;51.068;3.688;2022-08-06T05:56:37;7.05;;;2.85;;
23737;SDS011;12049;51.068;3.688;2022-08-06T05:58:50;6.60;;;3.30;;
23737;SDS011;12049;51.068;3.688;2022-08-06T06:01:19;9.18;;;2.97;;
23737;SDS011;12049;51.068;3.688;2022-08-06T06:03:45;6.30;;;2.53;;
23737;SDS011;12049;51.068;3.688;2022-08-06T06:06:11;5.93;;;2.90;;
23737;SDS011;12049;51.068;3.688;2022-08-06T06:08:37;6.85;;;3.00;;
23737;SDS011;12049;51.068;3.688;2022-08-06T06:11:04;6.78;;;2.83;;
23737;SDS011;12049;51.068;3.688;2022-08-06T06:13:32;6.93;;;3.03;;
23737;SDS011;12049;51.068;3.688;2022-08-06T06:21:54;6.25;;;2.67;;
23737;SDS011;12049;51.068;3.688;2022-08-06T06:24:43;6.63;;;2.70;;
23737;SDS011;12049;51.068;3.688;2022-08-06T06:27:37;7.70;;;3.20;;
23737;SDS011;12049;51.068;3.688;2022-08-06T06:30:21;6.72;;;3.03;;
23737;SDS011;12049;51.068;3.688;2022-08-06T06:33:02;7.65;;;2.50;;
23737;SDS011;12049;51.068;3.688;2022-08-06T06:35:41;6.68;;;2.83;;
23737;SDS011;12049;51.068;3.688;2022-08-06T06:43:36;7.25;;;2.88;;
23737;SDS011;12049;51.068;3.688;2022-08-06T06:51:26;5.20;;;2.95;;
23737;SDS011;12049;51.068;3.688;2022-08-06T06:53:57;8.43;;;3.10;;
23737;SDS011;12049;51.068;3.688;2022-08-06T06:56:25;7.38;;;2.88;;
23737;SDS011;12049;51.068;3.688;2022-08-06T06:59:15;6.47;;;2.92;;
23737;SDS011;12049;51.068;3.688;2022-08-06T07:01:47;9.30;;;3.42;;
23737;SDS011;12049;51.068;3.688;2022-08-06T07:04:14;6.82;;;2.85;;
23737;SDS011;12049;51.068;3.688;2022-08-06T07:06:42;5.55;;;2.67;;
23737;SDS011;12049;51.068;3.688;2022-08-06T07:09:18;10.15;;;3.08;;
23737;SDS011;12049;51.068;3.688;2022-08-06T07:11:46;6.45;;;2.55;;
23737;SDS011;12049;51.068;3.688;2022-08-06T07:14:14;6.28;;;2.75;;
23737;SDS011;12049;51.068;3.688;2022-08-06T07:16:40;6.28;;;2.60;;
23737;SDS011;12049;51.068;3.688;2022-08-06T07:19:07;5.13;;;2.65;;
23737;SDS011;12049;51.068;3.688;2022-08-06T07:21:34;7.03;;;2.40;;
23737;SDS011;12049;51.068;3.688;2022-08-06T07:24:01;10.98;;;2.55;;
23737;SDS011;12049;51.068;3.688;2022-08-06T07:26:28;6.50;;;2.30;;
23737;SDS011;12049;51.068;3.688;2022-08-06T07:28:55;5.82;;;2.30;;
23737;SDS011;12049;51.068;3.688;2022-08-06T07:31:22;6.88;;;2.00;;
23737;SDS011;12049;51.068;3.688;2022-08-06T07:33:51;8.93;;;2.17;;
23737;SDS011;12049;51.068;3.688;2022-08-06T07:36:17;4.97;;;2.00;;
23737;SDS011;12049;51.068;3.688;2022-08-06T07:38:46;4.80;;;2.22;;
23737;SDS011;12049;51.068;3.688;2022-08-06T07:41:14;4.78;;;1.60;;
23737;SDS011;12049;51.068;3.688;2022-08-06T07:43:48;3.78;;;1.60;;
23737;SDS011;12049;51.068;3.688;2022-08-06T07:46:20;4.47;;;1.90;;
23737;SDS011;12049;51.068;3.688;2022-08-06T07:48:49;5.75;;;1.60;;
23737;SDS011;12049;51.068;3.688;2022-08-06T07:51:22;6.32;;;1.92;;
23737;SDS011;12049;51.068;3.688;2022-08-06T07:53:50;8.07;;;1.80;;
23737;SDS011;12049;51.068;3.688;2022-08-06T07:56:16;3.95;;;1.65;;
23737;SDS011;12049;51.068;3.688;2022-08-06T07:58:43;6.30;;;1.67;;
23737;SDS011;12049;51.068;3.688;2022-08-06T08:01:10;5.13;;;1.75;;
23737;SDS011;12049;51.068;3.688;2022-08-06T08:03:37;5.05;;;1.92;;
23737;SDS011;12049;51.068;3.688;2022-08-06T08:06:22;6.32;;;1.92;;
23737;SDS011;12049;51.068;3.688;2022-08-06T08:08:56;6.85;;;1.67;;
23737;SDS011;12049;51.068;3.688;2022-08-06T08:11:34;8.35;;;1.90;;
23737;SDS011;12049;51.068;3.688;2022-08-06T08:14:05;5.63;;;2.20;;
23737;SDS011;12049;51.068;3.688;2022-08-06T08:16:34;8.88;;;2.03;;
23737;SDS011;12049;51.068;3.688;2022-08-06T08:19:00;6.60;;;1.92;;
23737;SDS011;12049;51.068;3.688;2022-08-06T08:21:26;10.25;;;2.00;;
23737;SDS011;12049;51.068;3.688;2022-08-06T08:23:54;6.78;;;2.22;;
23737;SDS011;12049;51.068;3.688;2022-08-06T08:26:20;9.38;;;2.20;;
23737;SDS011;12049;51.068;3.688;2022-08-06T08:28:46;9.02;;;2.85;;
23737;SDS011;12049;51.068;3.688;2022-08-06T08:31:12;9.35;;;6.40;;
23737;SDS011;12049;51.068;3.688;2022-08-06T08:33:38;7.03;;;2.25;;
23737;SDS011;12049;51.068;3.688;2022-08-06T08:36:05;6.07;;;2.05;;
23737;SDS011;12049;51.068;3.688;2022-08-06T08:38:32;4.80;;;1.40;;
23737;SDS011;12049;51.068;3.688;2022-08-06T08:41:04;9.45;;;5.20;;
23737;SDS011;12049;51.068;3.688;2022-08-06T08:43:46;5.97;;;2.10;;
23737;SDS011;12049;51.068;3.688;2022-08-06T08:46:17;4.30;;;1.70;;
23737;SDS011;12049;51.068;3.688;2022-08-06T08:48:44;6.15;;;1.75;;
23737;SDS011;12049;51.068;3.688;2022-08-06T08:51:11;3.70;;;1.67;;
23737;SDS011;12049;51.068;3.688;2022-08-06T08:53:47;6.07;;;1.40;;
23737;SDS011;12049;51.068;3.688;2022-08-06T08:56:17;6.60;;;1.75;;
23737;SDS011;12049;51.068;3.688;2022-08-06T08:58:43;3.95;;;1.55;;
23737;SDS011;12049;51.068;3.688;2022-08-06T09:01:09;5.05;;;2.03;;
23737;SDS011;12049;51.068;3.688;2022-08-06T09:03:36;3.28;;;1.77;;
23737;SDS011;12049;51.068;3.688;2022-08-06T09:06:04;4.10;;;2.05;;
23737;SDS011;12049;51.068;3.688;2022-08-06T09:08:30;5.72;;;1.98;;
23737;SDS011;12049;51.068;3.688;2022-08-06T09:10:57;5.28;;;2.03;;
23737;SDS011;12049;51.068;3.688;2022-08-06T09:13:27;4.97;;;2.13;;
23737;SDS011;12049;51.068;3.688;2022-08-06T09:15:53;6.53;;;2.13;;
23737;SDS011;12049;51.068;3.688;2022-08-06T09:18:19;7.63;;;2.20;;
23737;SDS011;12049;51.068;3.688;2022-08-06T09:20:45;6.65;;;2.20;;
23737;SDS011;12049;51.068;3.688;2022-08-06T09:23:12;5.22;;;1.95;;
23737;SDS011;12049;51.068;3.688;2022-08-06T09:30:56;4.45;;;2.03;;
23737;SDS011;12049;51.068;3.688;2022-08-06T09:33:27;5.38;;;1.83;;
23737;SDS011;12049;51.068;3.688;2022-08-06T09:36:05;5.50;;;1.90;;
23737;SDS011;12049;51.068;3.688;2022-08-06T09:38:33;4.05;;;1.80;;
23737;SDS011;12049;51.068;3.688;2022-08-06T09:41:13;5.25;;;1.95;;
23737;SDS011;12049;51.068;3.688;2022-08-06T09:43:39;6.20;;;2.00;;
23737;SDS011;12049;51.068;3.688;2022-08-06T09:46:06;8.15;;;1.85;;
23737;SDS011;12049;51.068;3.688;2022-08-06T09:48:32;4.82;;;1.77;;
23737;SDS011;12049;51.068;3.688;2022-08-06T09:50:58;5.32;;;2.13;;
23737;SDS011;12049;51.068;3.688;2022-08-06T09:53:28;4.00;;;1.80;;
23737;SDS011;12049;51.068;3.688;2022-08-06T09:55:54;4.25;;;1.63;;
23737;SDS011;12049;51.068;3.688;2022-08-06T10:01:21;3.53;;;1.77;;
23737;SDS011;12049;51.068;3.688;2022-08-06T10:03:48;11.20;;;1.75;;
23737;SDS011;12049;51.068;3.688;2022-08-06T10:06:16;2.70;;;1.10;;
23737;SDS011;12049;51.068;3.688;2022-08-06T10:08:49;3.75;;;1.33;;
23737;SDS011;12049;51.068;3.688;2022-08-06T10:11:37;11.68;;;2.13;;
23737;SDS011;12049;51.068;3.688;2022-08-06T10:14:04;3.10;;;1.70;;
23737;SDS011;12049;51.068;3.688;2022-08-06T10:16:32;7.80;;;1.60;;
23737;SDS011;12049;51.068;3.688;2022-08-06T10:18:58;2.70;;;1.08;;
23737;SDS011;12049;51.068;3.688;2022-08-06T10:21:25;3.92;;;1.48;;
23737;SDS011;12049;51.068;3.688;2022-08-06T10:24:01;3.47;;;1.40;;
23737;SDS011;12049;51.068;3.688;2022-08-06T10:26:33;3.10;;;1.10;;
23737;SDS011;12049;51.068;3.688;2022-08-06T10:29:03;2.67;;;1.10;;
23737;SDS011;12049;51.068;3.688;2022-08-06T10:31:30;2.17;;;1.23;;
23737;SDS011;12049;51.068;3.688;2022-08-06T10:34:20;2.60;;;1.30;;
23737;SDS011;12049;51.068;3.688;2022-08-06T10:36:53;3.17;;;1.15;;
23737;SDS011;12049;51.068;3.688;2022-08-06T10:39:26;2.67;;;1.00;;
23737;SDS011;12049;51.068;3.688;2022-08-06T10:41:54;3.08;;;1.10;;
23737;SDS011;12049;51.068;3.688;2022-08-06T10:44:21;1.55;;;1.02;;
23737;SDS011;12049;51.068;3.688;2022-08-06T10:46:48;2.28;;;1.13;;
23737;SDS011;12049;51.068;3.688;2022-08-06T10:49:17;3.03;;;1.35;;
23737;SDS011;12049;51.068;3.688;2022-08-06T10:51:44;1.58;;;1.00;;
23737;SDS011;12049;51.068;3.688;2022-08-06T10:54:11;3.40;;;1.30;;
23737;SDS011;12049;51.068;3.688;2022-08-06T10:56:37;2.22;;;1.20;;
23737;SDS011;12049;51.068;3.688;2022-08-06T10:59:04;2.85;;;1.40;;
23737;SDS011;12049;51.068;3.688;2022-08-06T11:01:44;3.05;;;1.30;;
23737;SDS011;12049;51.068;3.688;2022-08-06T11:04:33;4.80;;;1.77;;
23737;SDS011;12049;51.068;3.688;2022-08-06T11:12:22;3.40;;;1.20;;
23737;SDS011;12049;51.068;3.688;2022-08-06T11:15:07;2.88;;;1.20;;
23737;SDS011;12049;51.068;3.688;2022-08-06T11:18:34;3.67;;;1.30;;
23737;SDS011;12049;51.068;3.688;2022-08-06T11:23:43;6.03;;;1.80;;
23737;SDS011;12049;51.068;3.688;2022-08-06T11:26:00;2.08;;;1.30;;
23737;SDS011;12049;51.068;3.688;2022-08-06T11:30:54;5.97;;;1.55;;
23737;SDS011;12049;51.068;3.688;2022-08-06T11:36:03;2.20;;;1.30;;
23737;SDS011;12049;51.068;3.688;2022-08-06T11:41:10;3.03;;;1.33;;
23737;SDS011;12049;51.068;3.688;2022-08-06T11:43:42;3.33;;;1.40;;
23737;SDS011;12049;51.068;3.688;2022-08-06T11:46:18;1.90;;;1.20;;
23737;SDS011;12049;51.068;3.688;2022-08-06T12:05:51;1.95;;;1.02;;
23737;SDS011;12049;51.068;3.688;2022-08-06T12:08:11;3.70;;;1.23;;
23737;SDS011;12049;51.068;3.688;2022-08-06T12:13:44;1.92;;;0.90;;
23737;SDS011;12049;51.068;3.688;2022-08-06T12:18:59;1.45;;;0.88;;
23737;SDS011;12049;51.068;3.688;2022-08-06T12:21:28;2.42;;;0.90;;
23737;SDS011;12049;51.068;3.688;2022-08-06T12:23:53;1.50;;;1.00;;
23737;SDS011;12049;51.068;3.688;2022-08-06T12:26:20;3.10;;;1.00;;
23737;SDS011;12049;51.068;3.688;2022-08-06T12:28:46;3.55;;;0.90;;
23737;SDS011;12049;51.068;3.688;2022-08-06T12:31:13;2.25;;;0.88;;
23737;SDS011;12049;51.068;3.688;2022-08-06T12:33:42;5.20;;;1.15;;
23737;SDS011;12049;51.068;3.688;2022-08-06T12:36:08;2.30;;;1.00;;
23737;SDS011;12049;51.068;3.688;2022-08-06T12:38:34;7.00;;;1.00;;
23737;SDS011;12049;51.068;3.688;2022-08-06T12:41:05;1.58;;;0.88;;
23737;SDS011;12049;51.068;3.688;2022-08-06T12:43:33;1.65;;;0.80;;
23737;SDS011;12049;51.068;3.688;2022-08-06T12:46:01;2.75;;;0.90;;
23737;SDS011;12049;51.068;3.688;2022-08-06T12:48:32;3.40;;;1.10;;
23737;SDS011;12049;51.068;3.688;2022-08-06T12:51:05;2.55;;;0.90;;
23737;SDS011;12049;51.068;3.688;2022-08-06T12:53:37;2.03;;;0.90;;
23737;SDS011;12049;51.068;3.688;2022-08-06T12:56:04;1.98;;;1.00;;
23737;SDS011;12049;51.068;3.688;2022-08-06T12:58:31;2.40;;;0.90;;
23737;SDS011;12049;51.068;3.688;2022-08-06T13:00:59;2.42;;;0.95;;
23737;SDS011;12049;51.068;3.688;2022-08-06T13:03:26;2.05;;;0.85;;
23737;SDS011;12049;51.068;3.688;2022-08-06T13:05:54;1.67;;;0.80;;
23737;SDS011;12049;51.068;3.688;2022-08-06T13:08:24;5.53;;;0.98;;
23737;SDS011;12049;51.068;3.688;2022-08-06T13:10:51;3.22;;;0.70;;
23737;SDS011;12049;51.068;3.688;2022-08-06T13:13:17;3.75;;;1.17;;
23737;SDS011;12049;51.068;3.688;2022-08-06T13:18:30;1.15;;;0.80;;
23737;SDS011;12049;51.068;3.688;2022-08-06T13:20:56;1.77;;;0.77;;
23737;SDS011;12049;51.068;3.688;2022-08-06T13:23:34;2.42;;;0.75;;
23737;SDS011;12049;51.068;3.688;2022-08-06T13:26:16;2.72;;;0.85;;
23737;SDS011;12049;51.068;3.688;2022-08-06T13:29:02;2.17;;;0.80;;
23737;SDS011;12049;51.068;3.688;2022-08-06T13:31:56;2.65;;;0.98;;
23737;SDS011;12049;51.068;3.688;2022-08-06T13:34:23;4.40;;;0.88;;
23737;SDS011;12049;51.068;3.688;2022-08-06T13:36:53;1.38;;;0.90;;
23737;SDS011;12049;51.068;3.688;2022-08-06T13:39:30;3.10;;;1.10;;
23737;SDS011;12049;51.068;3.688;2022-08-06T13:42:03;3.08;;;0.95;;
23737;SDS011;12049;51.068;3.688;2022-08-06T13:44:32;3.63;;;0.90;;
23737;SDS011;12049;51.068;3.688;2022-08-06T13:47:00;2.53;;;1.00;;
23737;SDS011;12049;51.068;3.688;2022-08-06T13:49:27;2.58;;;1.05;;
23737;SDS011;12049;51.068;3.688;2022-08-06T13:51:52;2.70;;;1.10;;
23737;SDS011;12049;51.068;3.688;2022-08-06T13:54:18;3.08;;;1.00;;
23737;SDS011;12049;51.068;3.688;2022-08-06T13:56:45;3.53;;;1.10;;
23737;SDS011;12049;51.068;3.688;2022-08-06T13:59:11;2.92;;;1.00;;
23737;SDS011;12049;51.068;3.688;2022-08-06T14:01:37;3.28;;;1.10;;
23737;SDS011;12049;51.068;3.688;2022-08-06T14:04:02;3.10;;;1.25;;
23737;SDS011;12049;51.068;3.688;2022-08-06T14:06:29;3.55;;;1.10;;
23737;SDS011;12049;51.068;3.688;2022-08-06T14:08:55;3.47;;;1.20;;
23737;SDS011;12049;51.068;3.688;2022-08-06T14:11:21;1.35;;;0.98;;
23737;SDS011;12049;51.068;3.688;2022-08-06T14:13:46;3.53;;;1.17;;
23737;SDS011;12049;51.068;3.688;2022-08-06T14:16:12;4.80;;;1.20;;
23737;SDS011;12049;51.068;3.688;2022-08-06T14:18:38;2.45;;;1.10;;
23737;SDS011;12049;51.068;3.688;2022-08-06T14:21:04;2.38;;;1.30;;
23737;SDS011;12049;51.068;3.688;2022-08-06T14:23:30;1.27;;;1.10;;
23737;SDS011;12049;51.068;3.688;2022-08-06T14:25:55;2.83;;;1.10;;
23737;SDS011;12049;51.068;3.688;2022-08-06T14:28:21;2.90;;;1.13;;
23737;SDS011;12049;51.068;3.688;2022-08-06T14:30:47;1.30;;;0.82;;
23737;SDS011;12049;51.068;3.688;2022-08-06T14:33:12;2.88;;;1.10;;
23737;SDS011;12049;51.068;3.688;2022-08-06T14:35:38;1.88;;;1.00;;
23737;SDS011;12049;51.068;3.688;2022-08-06T14:38:04;2.90;;;0.95;;
23737;SDS011;12049;51.068;3.688;2022-08-06T14:40:31;1.75;;;0.98;;
23737;SDS011;12049;51.068;3.688;2022-08-06T14:43:15;2.53;;;1.02;;
23737;SDS011;12049;51.068;3.688;2022-08-06T14:45:59;4.22;;;0.98;;
23737;SDS011;12049;51.068;3.688;2022-08-06T14:48:25;3.08;;;1.33;;
23737;SDS011;12049;51.068;3.688;2022-08-06T14:50:51;3.60;;;1.27;;
23737;SDS011;12049;51.068;3.688;2022-08-06T14:53:17;5.28;;;1.30;;
23737;SDS011;12049;51.068;3.688;2022-08-06T14:55:42;2.65;;;1.00;;
23737;SDS011;12049;51.068;3.688;2022-08-06T14:58:08;1.60;;;0.80;;
23737;SDS011;12049;51.068;3.688;2022-08-06T15:00:34;1.80;;;0.90;;
23737;SDS011;12049;51.068;3.688;2022-08-06T15:03:03;2.05;;;1.10;;
23737;SDS011;12049;51.068;3.688;2022-08-06T15:05:29;3.35;;;1.10;;
23737;SDS011;12049;51.068;3.688;2022-08-06T15:07:55;1.80;;;1.05;;
23737;SDS011;12049;51.068;3.688;2022-08-06T15:10:20;2.15;;;1.00;;
23737;SDS011;12049;51.068;3.688;2022-08-06T15:12:46;1.20;;;0.90;;
23737;SDS011;12049;51.068;3.688;2022-08-06T15:15:12;2.47;;;0.90;;
23737;SDS011;12049;51.068;3.688;2022-08-06T15:17:37;6.07;;;1.40;;
23737;SDS011;12049;51.068;3.688;2022-08-06T15:20:03;2.35;;;1.02;;
23737;SDS011;12049;51.068;3.688;2022-08-06T15:22:29;1.15;;;0.90;;
23737;SDS011;12049;51.068;3.688;2022-08-06T15:24:55;11.52;;;1.08;;
23737;SDS011;12049;51.068;3.688;2022-08-06T15:27:20;2.47;;;1.10;;
23737;SDS011;12049;51.068;3.688;2022-08-06T15:29:46;2.30;;;1.10;;
23737;SDS011;12049;51.068;3.688;2022-08-06T15:32:12;7.45;;;1.10;;
23737;SDS011;12049;51.068;3.688;2022-08-06T15:34:38;2.65;;;1.20;;
23737;SDS011;12049;51.068;3.688;2022-08-06T15:37:04;1.95;;;1.02;;
23737;SDS011;12049;51.068;3.688;2022-08-06T15:39:31;1.80;;;1.08;;
23737;SDS011;12049;51.068;3.688;2022-08-06T15:41:58;3.58;;;1.20;;
23737;SDS011;12049;51.068;3.688;2022-08-06T15:44:24;2.10;;;0.98;;
23737;SDS011;12049;51.068;3.688;2022-08-06T15:46:50;5.15;;;1.10;;
23737;SDS011;12049;51.068;3.688;2022-08-06T15:49:16;4.18;;;1.00;;
23737;SDS011;12049;51.068;3.688;2022-08-06T15:51:42;69.80;;;4.82;;
23737;SDS011;12049;51.068;3.688;2022-08-06T15:54:07;5.47;;;1.40;;
23737;SDS011;12049;51.068;3.688;2022-08-06T15:56:33;6.05;;;1.30;;
23737;SDS011;12049;51.068;3.688;2022-08-06T15:58:59;2.28;;;1.25;;
23737;SDS011;12049;51.068;3.688;2022-08-06T16:01:25;3.40;;;1.20;;
23737;SDS011;12049;51.068;3.688;2022-08-06T16:03:51;2.30;;;0.90;;
23737;SDS011;12049;51.068;3.688;2022-08-06T16:06:16;3.45;;;1.10;;
23737;SDS011;12049;51.068;3.688;2022-08-06T16:08:42;3.75;;;1.05;;
23737;SDS011;12049;51.068;3.688;2022-08-06T16:11:09;2.33;;;1.20;;
23737;SDS011;12049;51.068;3.688;2022-08-06T16:13:36;4.88;;;1.05;;
23737;SDS011;12049;51.068;3.688;2022-08-06T16:16:02;1.83;;;0.93;;
23737;SDS011;12049;51.068;3.688;2022-08-06T16:18:28;1.40;;;0.98;;
23737;SDS011;12049;51.068;3.688;2022-08-06T16:20:56;3.55;;;1.10;;